createdAt,value
2018-07-13T00:02:19.111Z,8.80
2018-07-13T00:04:47.566Z,8.30
2018-07-13T00:07:16.050Z,7.70
2018-07-13T00:09:44.508Z,9.00
2018-07-13T00:12:13.007Z,9.23
2018-07-13T00:14:46.015Z,8.90
2018-07-13T00:17:14.496Z,8.30
2018-07-13T00:19:42.939Z,8.27
2018-07-13T00:22:11.778Z,9.10
2018-07-13T00:24:40.251Z,9.00
2018-07-13T00:27:08.699Z,8.60
2018-07-13T00:29:37.158Z,8.60
2018-07-13T00:32:05.604Z,9.18
2018-07-13T00:34:34.345Z,8.93
2018-07-13T00:37:02.781Z,9.23
2018-07-13T00:39:31.252Z,8.65
2018-07-13T00:41:59.723Z,9.88
2018-07-13T00:44:28.156Z,10.27
2018-07-13T00:46:56.610Z,8.40
2018-07-13T00:49:25.036Z,10.00
2018-07-13T00:51:53.827Z,9.50
2018-07-13T00:54:22.307Z,10.90
2018-07-13T00:56:50.716Z,10.73
2018-07-13T00:59:19.223Z,11.27
2018-07-13T01:01:47.843Z,11.87
2018-07-13T01:04:16.285Z,11.37
2018-07-13T01:06:44.720Z,12.40
2018-07-13T01:09:13.130Z,12.43
2018-07-13T01:11:41.915Z,11.03
2018-07-13T01:14:10.368Z,13.03
2018-07-13T01:16:38.764Z,11.07
2018-07-13T01:19:07.200Z,11.83
2018-07-13T01:21:35.593Z,10.70
2018-07-13T01:24:04.104Z,10.87
2018-07-13T01:26:32.567Z,10.95
2018-07-13T01:29:01.061Z,12.80
2018-07-13T01:31:29.533Z,10.87
2018-07-13T01:33:57.967Z,10.63
2018-07-13T01:36:26.431Z,11.13
2018-07-13T01:38:54.925Z,10.13
2018-07-13T01:41:23.460Z,12.00
2018-07-13T01:43:52.350Z,13.60
2018-07-13T01:46:20.781Z,12.95
2018-07-13T01:48:49.245Z,12.80
2018-07-13T01:51:17.678Z,13.45
2018-07-13T01:53:46.142Z,13.17
2018-07-13T01:56:14.604Z,13.13
2018-07-13T01:58:43.076Z,12.13
2018-07-13T02:01:11.544Z,13.67
2018-07-13T02:03:39.978Z,14.30
2018-07-13T02:06:08.464Z,12.80
2018-07-13T02:08:36.928Z,13.65
2018-07-13T02:11:05.470Z,12.00
2018-07-13T02:13:33.925Z,13.37
2018-07-13T02:16:02.374Z,12.53
2018-07-13T02:18:30.817Z,11.80
2018-07-13T02:20:59.288Z,11.77
2018-07-13T02:23:27.879Z,13.00
2018-07-13T02:25:56.364Z,14.50
2018-07-13T02:28:25.075Z,13.60
2018-07-13T02:30:53.588Z,12.50
2018-07-13T02:33:22.022Z,13.13
2018-07-13T02:35:50.726Z,13.63
2018-07-13T02:38:19.164Z,13.20
2018-07-13T02:40:47.588Z,11.80
2018-07-13T02:43:16.048Z,12.73
2018-07-13T02:45:44.782Z,13.25
2018-07-13T02:48:13.273Z,12.90
2018-07-13T02:50:41.696Z,13.23
2018-07-13T02:53:10.182Z,13.80
2018-07-13T02:55:38.639Z,13.23
2018-07-13T02:58:07.071Z,11.30
2018-07-13T03:00:35.541Z,9.17
2018-07-13T03:03:04.057Z,10.20
2018-07-13T03:05:32.559Z,11.00
2018-07-13T03:08:01.031Z,11.20
2018-07-13T03:10:29.752Z,10.10
2018-07-13T03:12:58.163Z,9.47
2018-07-13T03:15:26.642Z,11.67
2018-07-13T03:17:55.087Z,11.70
2018-07-13T03:20:23.868Z,10.60
2018-07-13T03:22:52.389Z,11.20
2018-07-13T03:25:20.808Z,10.57
2018-07-13T03:27:49.231Z,11.13
2018-07-13T03:30:32.695Z,10.77
2018-07-13T03:33:01.146Z,9.60
2018-07-13T03:35:29.624Z,11.60
2018-07-13T03:37:58.078Z,11.63
2018-07-13T03:40:26.535Z,14.50
2018-07-13T03:42:54.987Z,12.77
2018-07-13T03:45:23.475Z,11.80
2018-07-13T03:47:51.978Z,12.95
2018-07-13T03:50:20.476Z,12.80
2018-07-13T03:52:48.918Z,15.65
2018-07-13T03:55:17.403Z,13.57
2018-07-13T03:57:45.838Z,13.18
2018-07-13T04:00:14.281Z,13.00
2018-07-13T04:02:42.727Z,12.40
2018-07-13T04:05:11.263Z,12.20
2018-07-13T04:07:39.684Z,12.30
2018-07-13T04:10:08.207Z,12.67
2018-07-13T04:12:36.705Z,12.53
2018-07-13T04:15:05.426Z,11.80
2018-07-13T04:17:34.415Z,12.00
2018-07-13T04:20:02.928Z,12.23
2018-07-13T04:22:31.485Z,12.50
2018-07-13T04:24:59.951Z,12.77
2018-07-13T04:27:28.776Z,11.70
2018-07-13T04:29:57.536Z,13.37
2018-07-13T04:32:26.033Z,13.93
2018-07-13T04:34:54.552Z,13.78
2018-07-13T04:37:23.004Z,12.83
2018-07-13T04:39:51.474Z,12.77
2018-07-13T04:42:20.128Z,15.27
2018-07-13T04:44:48.561Z,13.25
2018-07-13T04:47:17.304Z,13.00
2018-07-13T04:49:45.796Z,12.65
2018-07-13T04:52:14.325Z,12.57
2018-07-13T04:54:43.139Z,13.38
2018-07-13T04:57:11.788Z,11.97
2018-07-13T04:59:40.676Z,12.53
2018-07-13T05:02:09.177Z,11.73
2018-07-13T05:04:37.924Z,12.50
2018-07-13T05:07:06.456Z,12.80
2018-07-13T05:09:34.947Z,12.83
2018-07-13T05:12:03.464Z,10.63
2018-07-13T05:14:31.908Z,11.07
2018-07-13T05:17:00.416Z,12.07
2018-07-13T05:19:28.919Z,11.37
2018-07-13T05:21:57.444Z,11.30
2018-07-13T05:24:26.001Z,10.70
2018-07-13T05:26:54.488Z,10.95
2018-07-13T05:29:23.022Z,10.10
2018-07-13T05:31:51.484Z,11.87
2018-07-13T05:34:20.026Z,11.67
2018-07-13T05:36:48.535Z,11.53
2018-07-13T05:39:16.979Z,12.10
2018-07-13T05:41:45.523Z,12.73
2018-07-13T05:44:14.294Z,18.13
2018-07-13T05:46:42.763Z,10.10
2018-07-13T05:49:11.237Z,10.53
2018-07-13T05:51:40.196Z,10.20
2018-07-13T05:54:08.733Z,11.50
2018-07-13T05:56:37.195Z,10.27
2018-07-13T05:59:05.712Z,10.13
2018-07-13T06:01:34.168Z,10.43
2018-07-13T06:04:02.680Z,10.25
2018-07-13T06:06:31.199Z,10.57
2018-07-13T06:08:59.655Z,10.40
2018-07-13T06:11:28.227Z,8.63
2018-07-13T06:13:56.638Z,11.70
2018-07-13T06:16:25.371Z,11.00
2018-07-13T06:18:54.580Z,12.75
2018-07-13T06:21:22.979Z,10.37
2018-07-13T06:23:51.451Z,10.07
2018-07-13T06:26:19.867Z,10.77
2018-07-13T06:28:48.276Z,11.30
2018-07-13T06:31:16.807Z,11.10
2018-07-13T06:36:28.228Z,10.57
2018-07-13T06:38:56.681Z,9.53
2018-07-13T06:41:25.165Z,9.60
2018-07-13T06:43:53.883Z,9.30
2018-07-13T06:46:22.307Z,10.50
2018-07-13T06:48:50.802Z,10.30
2018-07-13T06:51:19.260Z,9.37
2018-07-13T06:53:47.728Z,10.40
2018-07-13T06:56:16.400Z,9.75
2018-07-13T06:58:55.939Z,9.63
2018-07-13T07:01:24.390Z,9.93
2018-07-13T07:04:31.587Z,10.30
2018-07-13T07:07:05.815Z,9.63
2018-07-13T07:09:34.290Z,8.23
2018-07-13T07:13:10.037Z,8.63
2018-07-13T07:15:38.624Z,9.47
2018-07-13T07:18:07.586Z,9.20
2018-07-13T07:20:36.039Z,9.80
2018-07-13T07:23:04.481Z,8.30
2018-07-13T07:25:32.979Z,8.50
2018-07-13T07:28:01.431Z,9.37
2018-07-13T07:30:29.990Z,8.33
2018-07-13T07:32:58.390Z,9.50
2018-07-13T07:35:26.816Z,9.33
2018-07-13T07:37:55.286Z,8.23
2018-07-13T07:40:23.766Z,9.77
2018-07-13T07:42:52.284Z,8.43
2018-07-13T07:45:20.779Z,9.68
2018-07-13T07:47:49.361Z,9.10
2018-07-13T07:50:17.789Z,8.58
2018-07-13T07:52:46.359Z,9.30
2018-07-13T07:55:14.824Z,9.98
2018-07-13T07:57:43.731Z,9.97
2018-07-13T08:00:12.345Z,10.05
2018-07-13T08:02:40.951Z,9.37
2018-07-13T08:05:09.445Z,10.17
2018-07-13T08:07:37.918Z,9.40
2018-07-13T08:10:06.607Z,10.30
2018-07-13T08:12:35.147Z,10.30
2018-07-13T08:15:06.612Z,8.23
2018-07-13T08:17:35.099Z,8.70
2018-07-13T08:20:04.513Z,8.90
2018-07-13T08:22:38.051Z,9.10
2018-07-13T08:25:08.172Z,8.87
2018-07-13T08:27:43.616Z,9.37
2018-07-13T08:30:20.163Z,8.97
2018-07-13T08:32:48.586Z,7.90
2018-07-13T08:35:17.512Z,8.40
2018-07-13T08:37:46.475Z,8.83
2018-07-13T08:40:14.887Z,8.80
2018-07-13T08:42:43.564Z,8.10
2018-07-13T08:45:12.452Z,9.03
2018-07-13T08:47:40.967Z,7.17
2018-07-13T08:50:09.457Z,8.07
2018-07-13T08:52:37.987Z,7.30
2018-07-13T08:55:08.278Z,6.37
2018-07-13T08:57:36.764Z,7.27
2018-07-13T09:00:06.052Z,5.43
2018-07-13T09:02:34.520Z,6.50
2018-07-13T09:05:02.994Z,5.87
2018-07-13T09:07:32.743Z,4.70
2018-07-13T09:10:01.284Z,5.33
2018-07-13T09:12:30.147Z,5.63
2018-07-13T09:14:58.635Z,5.75
2018-07-13T09:17:27.078Z,6.20
2018-07-13T09:19:55.555Z,5.10
2018-07-13T09:22:23.976Z,6.37
2018-07-13T09:24:52.471Z,6.90
2018-07-13T09:27:20.891Z,7.03
2018-07-13T09:29:49.382Z,5.70
2018-07-13T09:33:20.620Z,5.17
2018-07-13T09:35:49.103Z,5.22
2018-07-13T09:38:17.809Z,4.50
2018-07-13T09:40:46.304Z,5.17
2018-07-13T09:43:14.731Z,5.35
2018-07-13T09:45:43.198Z,5.80
2018-07-13T09:48:11.637Z,4.80
2018-07-13T09:50:40.069Z,6.20
2018-07-13T09:53:08.595Z,5.43
2018-07-13T09:55:37.083Z,5.17
2018-07-13T09:58:05.696Z,4.40
2018-07-13T10:00:39.394Z,5.25
2018-07-13T10:03:07.862Z,4.80
2018-07-13T10:05:36.384Z,4.92
2018-07-13T10:08:04.852Z,4.20
2018-07-13T10:10:33.327Z,4.12
2018-07-13T10:13:01.827Z,3.90
2018-07-13T10:15:30.288Z,3.90
2018-07-13T10:17:58.788Z,4.43
2018-07-13T10:20:27.856Z,3.90
2018-07-13T10:22:56.344Z,3.70
2018-07-13T10:25:28.650Z,3.33
2018-07-13T10:27:57.514Z,3.90
2018-07-13T10:33:57.271Z,4.00
2018-07-13T10:36:25.790Z,4.23
2018-07-13T10:38:54.260Z,4.60
2018-07-13T10:41:23.588Z,4.50
2018-07-13T10:43:52.114Z,4.20
2018-07-13T10:46:20.655Z,4.13
2018-07-13T10:48:49.074Z,4.33
2018-07-13T10:51:17.600Z,4.37
2018-07-13T10:53:46.665Z,3.90
2018-07-13T10:56:15.263Z,4.07
2018-07-13T10:59:46.403Z,4.20
2018-07-13T11:02:14.839Z,4.10
2018-07-13T11:04:43.296Z,3.12
2018-07-13T11:07:11.804Z,4.57
2018-07-13T11:09:40.255Z,3.52
2018-07-13T11:12:08.972Z,3.60
2018-07-13T11:14:37.710Z,3.43
2018-07-13T11:17:06.406Z,3.80
2018-07-13T11:19:34.850Z,3.30
2018-07-13T11:22:03.289Z,3.15
2018-07-13T11:24:31.762Z,3.40
2018-07-13T11:27:00.186Z,3.80
2018-07-13T11:29:28.779Z,3.83
2018-07-13T11:31:57.363Z,3.77
2018-07-13T11:34:25.815Z,3.07
2018-07-13T11:36:54.350Z,3.97
2018-07-13T11:39:22.728Z,3.40
2018-07-13T11:41:51.268Z,3.03
2018-07-13T11:44:19.733Z,3.83
2018-07-13T11:46:48.144Z,4.47
2018-07-13T11:49:16.596Z,4.57
2018-07-13T11:51:45.032Z,3.20
2018-07-13T11:54:13.902Z,3.07
2018-07-13T11:56:42.326Z,21.35
2018-07-13T11:59:11.304Z,5.80
2018-07-13T12:01:39.761Z,3.10
2018-07-13T12:04:08.192Z,2.63
2018-07-13T12:06:36.647Z,2.77
2018-07-13T12:09:06.212Z,3.17
2018-07-13T12:11:35.373Z,3.20
2018-07-13T12:14:03.838Z,3.07
2018-07-13T12:16:32.296Z,2.77
2018-07-13T12:19:00.728Z,2.60
2018-07-13T12:21:29.170Z,3.33
2018-07-13T12:23:58.000Z,2.93
2018-07-13T12:26:26.351Z,2.90
2018-07-13T12:28:54.813Z,2.75
2018-07-13T12:31:23.298Z,3.90
2018-07-13T12:33:51.726Z,2.42
2018-07-13T12:36:20.171Z,3.10
2018-07-13T12:38:48.591Z,2.70
2018-07-13T12:44:00.041Z,2.90
2018-07-13T12:46:28.636Z,2.53
2018-07-13T12:48:57.113Z,2.90
2018-07-13T12:51:25.518Z,2.60
2018-07-13T12:53:54.275Z,2.53
2018-07-13T12:56:22.681Z,2.40
2018-07-13T12:58:51.147Z,2.30
2018-07-13T13:01:19.526Z,3.30
2018-07-13T13:03:47.952Z,2.53
2018-07-13T13:06:16.488Z,3.80
2018-07-13T13:08:44.912Z,4.60
2018-07-13T13:11:13.374Z,4.35
2018-07-13T13:13:42.627Z,4.90
2018-07-13T13:16:11.080Z,3.50
2018-07-13T13:18:42.625Z,4.30
2018-07-13T13:21:11.024Z,3.90
2018-07-13T13:23:39.500Z,4.50
2018-07-13T13:26:07.934Z,3.87
2018-07-13T13:28:36.363Z,3.50
2018-07-13T13:31:04.803Z,3.50
2018-07-13T13:33:33.214Z,3.23
2018-07-13T13:36:01.672Z,3.10
2018-07-13T13:38:30.089Z,2.83
2018-07-13T13:40:58.564Z,2.90
2018-07-13T13:43:27.122Z,3.37
2018-07-13T13:45:55.830Z,2.63
2018-07-13T13:48:24.240Z,3.13
2018-07-13T13:50:52.690Z,3.10
2018-07-13T13:53:21.134Z,3.50
2018-07-13T13:55:49.583Z,3.17
2018-07-13T13:58:18.011Z,3.37
2018-07-13T14:00:46.441Z,3.13
2018-07-13T14:03:15.115Z,3.33
2018-07-13T14:05:44.035Z,3.37
2018-07-13T14:08:12.788Z,3.08
2018-07-13T14:10:41.195Z,3.07
2018-07-13T14:13:09.658Z,2.90
2018-07-13T14:15:38.258Z,2.63
2018-07-13T14:18:06.773Z,3.50
2018-07-13T14:20:35.248Z,2.50
2018-07-13T14:23:03.745Z,2.70
2018-07-13T14:25:32.411Z,3.10
2018-07-13T14:28:01.014Z,4.37
2018-07-13T14:30:29.430Z,2.80
2018-07-13T14:32:57.848Z,3.10
2018-07-13T14:35:26.577Z,2.90
2018-07-13T14:37:55.027Z,3.23
2018-07-13T14:40:23.475Z,2.50
2018-07-13T14:42:51.936Z,2.93
2018-07-13T14:45:20.422Z,2.83
2018-07-13T14:47:49.058Z,3.20
2018-07-13T14:50:17.500Z,2.57
2018-07-13T14:52:45.934Z,2.50
2018-07-13T14:55:14.468Z,2.90
2018-07-13T14:57:43.160Z,2.70
2018-07-13T15:00:11.870Z,2.55
2018-07-13T15:02:40.551Z,2.63
2018-07-13T15:05:09.081Z,2.58
2018-07-13T15:07:37.495Z,2.40
2018-07-13T15:10:05.991Z,2.40
2018-07-13T15:12:34.808Z,2.63
2018-07-13T15:15:03.404Z,5.83
2018-07-13T15:17:32.170Z,6.90
2018-07-13T15:20:00.782Z,2.50
2018-07-13T15:22:29.262Z,2.80
2018-07-13T15:24:58.588Z,3.20
2018-07-13T15:27:27.083Z,3.27
2018-07-13T15:29:55.579Z,3.20
2018-07-13T15:32:24.204Z,3.30
2018-07-13T15:34:52.673Z,3.17
2018-07-13T15:37:21.127Z,2.83
2018-07-13T15:39:49.781Z,3.00
2018-07-13T15:42:18.230Z,3.40
2018-07-13T15:44:46.665Z,3.00
2018-07-13T15:47:15.115Z,3.00
2018-07-13T15:49:43.544Z,3.40
2018-07-13T15:52:12.912Z,3.63
2018-07-13T15:54:41.459Z,6.37
2018-07-13T15:57:10.156Z,2.87
2018-07-13T15:59:38.655Z,3.27
2018-07-13T16:02:07.108Z,2.90
2018-07-13T16:04:35.914Z,3.33
2018-07-13T16:07:04.385Z,4.00
2018-07-13T16:09:33.013Z,2.83
2018-07-13T16:12:02.392Z,3.17
2018-07-13T16:14:30.848Z,3.10
2018-07-13T16:16:59.392Z,3.10
2018-07-13T16:19:27.839Z,3.07
2018-07-13T16:21:56.280Z,2.77
2018-07-13T16:24:24.863Z,3.00
2018-07-13T16:26:53.276Z,3.03
2018-07-13T16:29:21.706Z,3.02
2018-07-13T16:31:50.298Z,3.00
2018-07-13T16:34:18.755Z,3.50
2018-07-13T16:36:47.229Z,3.70
2018-07-13T16:39:15.665Z,2.80
2018-07-13T16:41:44.154Z,2.70
2018-07-13T16:44:12.614Z,2.93
2018-07-13T16:46:41.076Z,2.70
2018-07-13T16:49:09.520Z,2.93
2018-07-13T16:51:38.248Z,3.17
2018-07-13T16:54:06.723Z,4.17
2018-07-13T16:56:35.145Z,3.13
2018-07-13T16:59:03.554Z,2.70
2018-07-13T17:01:32.011Z,2.90
2018-07-13T17:04:00.419Z,2.83
2018-07-13T17:06:28.871Z,2.40
2018-07-13T17:08:57.508Z,3.00
2018-07-13T17:11:25.935Z,3.70
2018-07-13T17:13:54.365Z,3.53
2018-07-13T17:16:22.792Z,3.90
2018-07-13T17:18:51.400Z,3.30
2018-07-13T17:21:19.831Z,3.57
2018-07-13T17:23:48.472Z,3.87
2018-07-13T17:26:16.946Z,3.83
2018-07-13T17:28:45.375Z,3.90
2018-07-13T17:31:13.914Z,3.67
2018-07-13T17:33:42.332Z,3.23
2018-07-13T17:36:10.790Z,4.07
2018-07-13T17:38:39.347Z,3.50
2018-07-13T17:41:07.997Z,3.87
2018-07-13T17:43:36.721Z,3.37
2018-07-13T17:46:05.443Z,4.07
2018-07-13T17:48:33.878Z,4.90
2018-07-13T17:51:02.307Z,11.17
2018-07-13T17:53:30.730Z,6.83
2018-07-13T17:55:59.197Z,6.43
2018-07-13T17:58:27.971Z,7.50
2018-07-13T18:00:56.738Z,7.30
2018-07-13T18:03:25.102Z,8.83
2018-07-13T18:05:53.712Z,6.50
2018-07-13T18:08:22.407Z,6.50
2018-07-13T18:10:50.907Z,5.50
2018-07-13T18:13:19.335Z,5.67
2018-07-13T18:15:47.836Z,5.20
2018-07-13T18:18:16.287Z,4.90
2018-07-13T18:20:44.719Z,5.13
2018-07-13T18:23:13.168Z,3.53
2018-07-13T18:25:41.596Z,4.63
2018-07-13T18:28:10.076Z,3.93
2018-07-13T18:30:38.468Z,3.77
2018-07-13T18:33:06.893Z,4.53
2018-07-13T18:35:35.320Z,4.72
2018-07-13T18:38:03.799Z,5.00
2018-07-13T18:40:32.320Z,9.67
2018-07-13T18:43:00.753Z,7.30
2018-07-13T18:45:29.200Z,5.57
2018-07-13T18:47:57.699Z,5.50
2018-07-13T18:50:26.124Z,6.57
2018-07-13T18:52:54.820Z,6.20
2018-07-13T18:55:23.934Z,8.33
2018-07-13T18:57:52.393Z,8.23
2018-07-13T19:00:20.807Z,7.43
2018-07-13T19:02:49.258Z,6.20
2018-07-13T19:05:17.696Z,5.83
2018-07-13T19:07:46.084Z,5.60
2018-07-13T19:10:14.488Z,5.33
2018-07-13T19:12:42.958Z,5.37
2018-07-13T19:15:11.404Z,4.90
2018-07-13T19:17:39.851Z,7.40
2018-07-13T19:20:08.468Z,10.93
2018-07-13T19:22:36.923Z,9.65
2018-07-13T19:25:05.625Z,5.93
2018-07-13T19:27:34.055Z,8.90
2018-07-13T19:30:02.493Z,7.53
2018-07-13T19:32:30.939Z,8.30
2018-07-13T19:34:59.619Z,7.90
2018-07-13T19:37:28.125Z,7.57
2018-07-13T19:39:56.569Z,7.03
2018-07-13T19:42:25.091Z,6.00
2018-07-13T19:44:53.508Z,7.42
2018-07-13T19:47:22.287Z,7.70
2018-07-13T19:49:50.967Z,7.27
2018-07-13T19:52:19.397Z,6.70
2018-07-13T19:54:47.887Z,8.10
2018-07-13T19:57:16.455Z,10.87
2018-07-13T19:59:45.647Z,9.48
2018-07-13T20:02:14.391Z,8.80
2018-07-13T20:04:43.037Z,8.20
2018-07-13T20:07:11.544Z,9.50
2018-07-13T20:09:39.952Z,9.13
2018-07-13T20:12:08.451Z,8.37
2018-07-13T20:14:36.939Z,8.13
2018-07-13T20:17:05.952Z,8.00
2018-07-13T20:19:34.623Z,7.90
2018-07-13T20:22:03.090Z,8.43
2018-07-13T20:24:31.516Z,9.53
2018-07-13T20:26:59.923Z,8.40
2018-07-13T20:29:28.324Z,7.50
2018-07-13T20:31:56.811Z,8.40
2018-07-13T20:34:25.212Z,8.83
2018-07-13T20:36:53.676Z,8.70
2018-07-13T20:39:22.183Z,9.37
2018-07-13T20:41:50.607Z,9.10
2018-07-13T20:44:19.357Z,9.33
2018-07-13T20:46:47.782Z,9.53
2018-07-13T20:49:16.208Z,9.03
2018-07-13T20:51:44.671Z,8.60
2018-07-13T20:54:13.225Z,8.87
2018-07-13T20:56:41.609Z,11.30
2018-07-13T20:59:10.031Z,11.00
2018-07-13T21:01:39.502Z,8.75
2018-07-13T21:04:08.221Z,14.67
2018-07-13T21:06:36.700Z,15.63
2018-07-13T21:09:05.844Z,8.77
2018-07-13T21:11:34.443Z,9.33
2018-07-13T21:14:02.919Z,9.87
2018-07-13T21:16:31.322Z,9.63
2018-07-13T21:18:59.791Z,7.90
2018-07-13T21:21:28.252Z,8.83
2018-07-13T21:23:56.679Z,9.73
2018-07-13T21:26:25.101Z,8.93
2018-07-13T21:28:53.527Z,9.57
2018-07-13T21:31:22.244Z,9.13
2018-07-13T21:33:50.731Z,9.50
2018-07-13T21:36:19.228Z,10.23
2018-07-13T21:38:48.098Z,11.47
2018-07-13T21:41:16.507Z,10.03
2018-07-13T21:43:45.243Z,9.90
2018-07-13T21:46:13.672Z,9.53
2018-07-13T21:48:42.134Z,9.70
2018-07-13T21:51:10.555Z,10.13
2018-07-13T21:53:39.063Z,9.18
2018-07-13T21:56:07.523Z,9.63
2018-07-13T21:58:35.904Z,10.60
2018-07-13T22:01:04.424Z,10.77
2018-07-13T22:03:32.835Z,10.03
2018-07-13T22:06:01.323Z,10.32
2018-07-13T22:08:30.078Z,9.53
2018-07-13T22:10:58.512Z,10.05
2018-07-13T22:13:27.017Z,10.10
2018-07-13T22:15:55.502Z,10.80
2018-07-13T22:18:24.474Z,10.60
2018-07-13T22:20:52.931Z,9.80
2018-07-13T22:23:21.345Z,10.40
2018-07-13T22:25:50.227Z,10.33
2018-07-13T22:28:18.635Z,10.63
2018-07-13T22:30:47.095Z,11.33
2018-07-13T22:33:15.774Z,11.10
2018-07-13T22:35:44.195Z,11.30
2018-07-13T22:38:12.622Z,10.53
2018-07-13T22:40:41.203Z,12.80
2018-07-13T22:43:10.088Z,12.23
2018-07-13T22:45:38.877Z,11.97
2018-07-13T22:48:07.311Z,12.40
2018-07-13T22:50:35.799Z,11.27
2018-07-13T22:53:04.244Z,12.73
2018-07-13T22:55:32.721Z,11.77
2018-07-13T22:58:01.444Z,12.37
2018-07-13T23:00:29.869Z,13.00
2018-07-13T23:02:58.576Z,12.27
2018-07-13T23:05:26.991Z,12.10
2018-07-13T23:07:55.451Z,11.17
2018-07-13T23:10:23.959Z,11.50
2018-07-13T23:12:52.364Z,12.57
2018-07-13T23:15:20.864Z,11.57
2018-07-13T23:17:49.285Z,13.00
2018-07-13T23:20:17.760Z,11.83
2018-07-13T23:22:46.315Z,12.67
2018-07-13T23:25:14.747Z,12.73
2018-07-13T23:27:43.215Z,12.63
2018-07-13T23:30:11.717Z,13.55
2018-07-13T23:32:40.115Z,12.20
2018-07-13T23:35:08.926Z,12.60
2018-07-13T23:37:37.379Z,11.70
2018-07-13T23:40:05.882Z,12.47
2018-07-13T23:42:34.451Z,11.63
2018-07-13T23:45:02.879Z,11.27
2018-07-13T23:47:31.327Z,13.10
2018-07-13T23:50:00.751Z,11.55
2018-07-13T23:52:29.229Z,13.53
2018-07-13T23:54:57.692Z,13.47
2018-07-13T23:57:26.212Z,12.80
2018-07-13T23:59:54.620Z,11.60
